createdAt,value
2019-05-19T00:00:07.247Z,9.97
2019-05-19T00:02:33.978Z,11.63
2019-05-19T00:05:00.716Z,11.33
2019-05-19T00:07:27.463Z,9.30
2019-05-19T00:09:54.198Z,9.60
2019-05-19T00:12:20.942Z,8.43
2019-05-19T00:14:47.663Z,8.57
2019-05-19T00:17:14.487Z,10.18
2019-05-19T00:19:41.223Z,7.93
2019-05-19T00:22:07.968Z,8.50
2019-05-19T00:24:34.698Z,8.30
2019-05-19T00:27:01.461Z,8.63
2019-05-19T00:29:28.187Z,9.30
2019-05-19T00:31:54.939Z,7.67
2019-05-19T00:34:21.658Z,13.60
2019-05-19T00:36:48.396Z,7.47
2019-05-19T00:39:15.138Z,7.40
2019-05-19T00:41:41.866Z,7.43
2019-05-19T00:44:08.601Z,6.70
2019-05-19T00:46:35.332Z,6.70
2019-05-19T00:49:02.094Z,7.60
2019-05-19T00:51:28.830Z,6.73
2019-05-19T00:53:55.575Z,7.17
2019-05-19T00:56:22.327Z,8.17
2019-05-19T00:58:49.098Z,6.70
2019-05-19T01:01:15.886Z,7.03
2019-05-19T01:03:42.639Z,6.03
2019-05-19T01:06:09.395Z,6.70
2019-05-19T01:08:36.122Z,5.70
2019-05-19T01:11:02.882Z,6.13
2019-05-19T01:13:29.618Z,5.17
2019-05-19T01:15:56.341Z,5.50
2019-05-19T01:18:23.084Z,5.10
2019-05-19T01:20:49.810Z,6.43
2019-05-19T01:23:16.558Z,5.83
2019-05-19T01:25:43.285Z,4.57
2019-05-19T01:28:10.034Z,5.43
2019-05-19T01:30:36.981Z,5.43
2019-05-19T01:33:03.718Z,5.33
2019-05-19T01:35:30.450Z,7.40
2019-05-19T01:37:57.198Z,5.20
2019-05-19T01:40:23.931Z,4.90
2019-05-19T01:42:50.670Z,5.77
2019-05-19T01:45:17.422Z,5.30
2019-05-19T01:47:44.174Z,4.80
2019-05-19T01:50:18.779Z,4.57
2019-05-19T01:52:37.647Z,4.53
2019-05-19T01:55:04.422Z,4.47
2019-05-19T01:57:31.146Z,5.00
2019-05-19T01:59:57.910Z,4.70
2019-05-19T02:02:24.646Z,4.23
2019-05-19T02:04:51.467Z,4.47
2019-05-19T02:07:18.190Z,5.30
2019-05-19T02:09:44.955Z,4.93
2019-05-19T02:12:11.674Z,5.43
2019-05-19T02:14:38.414Z,4.30
2019-05-19T02:17:05.160Z,4.60
2019-05-19T02:19:31.915Z,4.27
2019-05-19T02:21:58.630Z,3.97
2019-05-19T02:24:25.386Z,4.27
2019-05-19T02:26:52.119Z,4.27
2019-05-19T02:29:18.857Z,4.07
2019-05-19T02:31:45.609Z,8.43
2019-05-19T02:34:12.447Z,3.70
2019-05-19T02:36:39.179Z,4.23
2019-05-19T02:39:05.934Z,4.50
2019-05-19T02:41:32.690Z,4.40
2019-05-19T02:43:59.394Z,5.83
2019-05-19T02:46:26.125Z,5.03
2019-05-19T02:48:53.145Z,5.60
2019-05-19T02:51:19.901Z,5.23
2019-05-19T02:53:46.623Z,7.07
2019-05-19T02:56:13.355Z,6.00
2019-05-19T02:58:40.081Z,5.97
2019-05-19T03:01:06.839Z,5.70
2019-05-19T03:03:33.582Z,4.80
2019-05-19T03:06:00.323Z,5.80
2019-05-19T03:08:27.047Z,4.23
2019-05-19T03:10:53.798Z,4.13
2019-05-19T03:13:20.523Z,5.87
2019-05-19T03:15:47.258Z,6.25
2019-05-19T03:18:13.981Z,6.13
2019-05-19T03:20:40.727Z,7.00
2019-05-19T03:23:07.510Z,5.77
2019-05-19T03:25:34.290Z,5.93
2019-05-19T03:28:01.039Z,7.40
2019-05-19T03:30:53.345Z,6.23
2019-05-19T03:33:22.572Z,6.23
2019-05-19T03:35:49.311Z,6.33
2019-05-19T03:38:16.073Z,6.03
2019-05-19T03:40:42.831Z,5.67
2019-05-19T03:43:09.635Z,5.70
2019-05-19T03:45:36.373Z,5.50
2019-05-19T03:48:03.099Z,5.23
2019-05-19T03:50:29.846Z,6.17
2019-05-19T03:52:56.582Z,6.60
2019-05-19T03:55:23.343Z,5.40
2019-05-19T03:57:50.067Z,7.17
2019-05-19T04:00:16.801Z,5.20
2019-05-19T04:02:43.547Z,5.10
2019-05-19T04:05:10.283Z,4.20
2019-05-19T04:07:37.031Z,5.20
2019-05-19T04:10:04.074Z,4.87
2019-05-19T04:12:30.855Z,4.07
2019-05-19T04:14:57.576Z,5.03
2019-05-19T04:17:24.326Z,4.73
2019-05-19T04:19:51.055Z,4.50
2019-05-19T04:22:17.843Z,5.10
2019-05-19T04:24:44.712Z,4.60
2019-05-19T04:27:11.490Z,3.87
2019-05-19T04:29:39.536Z,4.60
2019-05-19T04:32:04.962Z,4.27
2019-05-19T04:34:31.701Z,4.60
2019-05-19T04:36:58.512Z,4.30
2019-05-19T04:39:25.186Z,5.17
2019-05-19T04:41:51.920Z,5.47
2019-05-19T04:44:18.680Z,6.20
2019-05-19T04:46:45.401Z,5.23
2019-05-19T04:49:12.228Z,5.10
2019-05-19T04:51:38.987Z,5.47
2019-05-19T04:54:05.710Z,4.53
2019-05-19T04:56:32.463Z,4.87
2019-05-19T04:58:59.191Z,5.47
2019-05-19T05:01:25.919Z,6.30
2019-05-19T05:03:52.683Z,6.00
2019-05-19T05:06:19.410Z,5.40
2019-05-19T05:08:46.162Z,6.03
2019-05-19T05:11:12.902Z,10.67
2019-05-19T05:13:39.642Z,5.70
2019-05-19T05:16:06.391Z,6.27
2019-05-19T05:18:33.133Z,7.10
2019-05-19T05:20:59.863Z,7.13
2019-05-19T05:23:26.612Z,8.43
2019-05-19T05:25:53.345Z,9.63
2019-05-19T05:28:20.190Z,8.87
2019-05-19T05:30:47.069Z,9.33
2019-05-19T05:33:13.830Z,8.37
2019-05-19T05:35:40.574Z,8.93
2019-05-19T05:38:07.327Z,8.60
2019-05-19T05:40:34.194Z,8.43
2019-05-19T05:43:00.955Z,8.60
2019-05-19T05:45:27.670Z,8.53
2019-05-19T05:47:54.410Z,8.43
2019-05-19T05:50:21.151Z,9.57
2019-05-19T05:52:48.078Z,10.47
2019-05-19T05:55:14.844Z,9.77
2019-05-19T05:57:41.574Z,12.95
2019-05-19T06:00:08.386Z,13.00
2019-05-19T06:02:35.127Z,12.20
2019-05-19T06:05:01.954Z,13.50
2019-05-19T06:07:28.666Z,13.98
2019-05-19T06:09:55.490Z,12.03
2019-05-19T06:12:22.206Z,13.60
2019-05-19T06:14:48.955Z,11.67
2019-05-19T06:17:15.704Z,11.50
2019-05-19T06:19:42.451Z,10.83
2019-05-19T06:22:09.179Z,10.47
2019-05-19T06:24:35.938Z,10.88
2019-05-19T06:27:02.662Z,10.13
2019-05-19T06:29:29.427Z,10.23
2019-05-19T06:31:58.961Z,9.77
2019-05-19T06:34:25.695Z,9.03
2019-05-19T06:36:55.102Z,8.87
2019-05-19T06:39:19.386Z,8.40
2019-05-19T06:41:46.111Z,7.90
2019-05-19T06:44:12.903Z,6.70
2019-05-19T06:46:39.634Z,7.20
2019-05-19T06:49:06.389Z,8.57
2019-05-19T06:51:33.122Z,8.67
2019-05-19T06:53:59.863Z,8.73
2019-05-19T06:56:26.622Z,10.30
2019-05-19T06:58:53.427Z,8.70
2019-05-19T07:01:20.183Z,8.07
2019-05-19T07:03:46.930Z,9.13
2019-05-19T07:06:13.678Z,8.33
2019-05-19T07:08:40.418Z,8.30
2019-05-19T07:11:07.174Z,8.30
2019-05-19T07:13:33.925Z,7.97
2019-05-19T07:16:00.653Z,7.90
2019-05-19T07:18:27.368Z,7.03
2019-05-19T07:20:54.111Z,7.97
2019-05-19T07:23:28.097Z,7.73
2019-05-19T07:25:47.705Z,7.53
2019-05-19T07:28:14.837Z,8.93
2019-05-19T07:30:41.598Z,7.57
2019-05-19T07:33:08.401Z,7.17
2019-05-19T07:35:35.599Z,7.27
2019-05-19T07:38:02.416Z,7.90
2019-05-19T07:40:29.147Z,11.20
2019-05-19T07:42:56.306Z,7.50
2019-05-19T07:45:23.158Z,7.60
2019-05-19T07:47:49.910Z,7.50
2019-05-19T07:50:16.774Z,7.13
2019-05-19T07:52:43.505Z,6.20
2019-05-19T07:55:10.307Z,6.20
2019-05-19T07:57:37.052Z,5.50
2019-05-19T08:00:04.992Z,7.80
2019-05-19T08:02:31.100Z,7.27
2019-05-19T08:04:57.791Z,5.20
2019-05-19T08:07:24.520Z,5.40
2019-05-19T08:09:51.250Z,5.27
2019-05-19T08:12:18.002Z,6.17
2019-05-19T08:14:44.722Z,7.10
2019-05-19T08:17:11.462Z,6.17
2019-05-19T08:19:38.216Z,6.53
2019-05-19T08:22:04.950Z,6.60
2019-05-19T08:24:31.698Z,6.23
2019-05-19T08:26:58.475Z,5.80
2019-05-19T08:29:25.206Z,5.10
2019-05-19T08:31:51.946Z,5.30
2019-05-19T08:34:18.678Z,5.53
2019-05-19T08:36:45.598Z,5.63
2019-05-19T08:39:12.150Z,5.70
2019-05-19T08:41:38.981Z,5.50
2019-05-19T08:44:05.728Z,5.43
2019-05-19T08:46:32.571Z,4.50
2019-05-19T08:48:59.327Z,7.40
2019-05-19T08:51:26.096Z,6.30
2019-05-19T08:53:52.803Z,5.70
2019-05-19T08:56:19.555Z,4.93
2019-05-19T08:58:46.283Z,5.30
2019-05-19T09:01:13.010Z,4.73
2019-05-19T09:03:39.765Z,4.90
2019-05-19T09:06:06.578Z,5.80
2019-05-19T09:08:33.326Z,4.80
2019-05-19T09:11:00.162Z,5.53
2019-05-19T09:13:27.318Z,4.90
2019-05-19T09:15:54.137Z,4.80
2019-05-19T09:18:20.890Z,3.90
2019-05-19T09:20:47.639Z,3.73
2019-05-19T09:23:14.382Z,3.73
2019-05-19T09:25:41.110Z,4.27
2019-05-19T09:28:07.954Z,4.37
2019-05-19T09:30:34.710Z,3.50
2019-05-19T09:33:01.594Z,4.20
2019-05-19T09:35:28.265Z,6.70
2019-05-19T09:37:55.062Z,4.27
2019-05-19T09:40:21.862Z,4.30
2019-05-19T09:42:48.613Z,3.70
2019-05-19T09:45:15.397Z,3.27
2019-05-19T09:47:42.213Z,3.13
2019-05-19T09:50:08.956Z,3.47
2019-05-19T09:52:35.698Z,3.40
2019-05-19T09:55:02.474Z,4.10
2019-05-19T09:57:29.215Z,3.73
2019-05-19T09:59:55.949Z,3.50
2019-05-19T10:02:22.747Z,4.30
2019-05-19T10:04:49.474Z,3.40
2019-05-19T10:07:16.202Z,4.23
2019-05-19T10:10:01.861Z,5.27
2019-05-19T10:12:28.834Z,5.15
2019-05-19T10:14:55.584Z,3.50
2019-05-19T10:17:22.313Z,3.37
2019-05-19T10:19:49.069Z,4.17
2019-05-19T10:22:15.894Z,5.00
2019-05-19T10:24:59.204Z,3.60
2019-05-19T10:27:09.502Z,4.30
2019-05-19T10:29:36.262Z,4.07
2019-05-19T10:32:03.011Z,4.50
2019-05-19T10:34:29.758Z,4.03
2019-05-19T10:36:56.566Z,4.63
2019-05-19T10:39:23.323Z,3.62
2019-05-19T10:41:50.074Z,4.57
2019-05-19T10:44:16.859Z,3.60
2019-05-19T10:46:43.593Z,3.37
2019-05-19T10:49:10.351Z,3.50
2019-05-19T10:51:37.098Z,3.47
2019-05-19T10:54:03.870Z,3.00
2019-05-19T10:56:30.606Z,2.80
2019-05-19T10:58:57.355Z,5.63
2019-05-19T11:01:24.305Z,3.47
2019-05-19T11:03:51.044Z,3.50
2019-05-19T11:06:17.850Z,2.95
2019-05-19T11:08:44.590Z,3.00
2019-05-19T11:11:11.346Z,2.83
2019-05-19T11:13:38.063Z,2.70
2019-05-19T11:16:04.815Z,3.03
2019-05-19T11:18:31.557Z,3.10
2019-05-19T11:20:58.318Z,2.37
2019-05-19T11:23:25.034Z,2.50
2019-05-19T11:25:57.648Z,2.67
2019-05-19T11:28:24.580Z,2.20
2019-05-19T11:31:01.008Z,2.30
2019-05-19T11:33:29.776Z,2.30
2019-05-19T11:35:58.789Z,4.27
2019-05-19T11:38:28.938Z,2.50
2019-05-19T11:40:59.266Z,2.37
2019-05-19T11:43:29.250Z,2.60
2019-05-19T11:45:58.243Z,2.80
2019-05-19T11:48:26.882Z,2.70
2019-05-19T11:50:55.943Z,2.30
2019-05-19T11:53:24.834Z,2.30
2019-05-19T11:56:05.710Z,2.27
2019-05-19T11:58:22.124Z,2.57
2019-05-19T12:00:49.720Z,2.83
2019-05-19T12:03:20.684Z,2.70
2019-05-19T12:05:48.700Z,9.88
2019-05-19T12:08:17.391Z,50.80
2019-05-19T12:10:53.816Z,24.52
2019-05-19T12:13:21.526Z,2.70
2019-05-19T12:15:52.159Z,2.77
2019-05-19T12:18:21.297Z,2.60
2019-05-19T12:20:49.519Z,3.42
2019-05-19T12:23:18.976Z,2.23
2019-05-19T12:25:49.424Z,2.13
2019-05-19T12:28:19.385Z,2.00
2019-05-19T12:30:50.790Z,1.70
2019-05-19T12:33:21.663Z,1.80
2019-05-19T12:35:50.775Z,2.17
2019-05-19T12:38:21.777Z,6.73
2019-05-19T12:40:53.581Z,1.70
2019-05-19T12:43:23.386Z,2.60
2019-05-19T12:45:55.687Z,1.90
2019-05-19T12:48:24.241Z,1.67
2019-05-19T12:50:52.238Z,1.93
2019-05-19T12:53:21.641Z,1.92
2019-05-19T12:55:51.039Z,2.40
2019-05-19T12:58:22.306Z,2.50
2019-05-19T13:00:51.474Z,1.90
2019-05-19T13:03:24.564Z,4.17
2019-05-19T13:05:55.924Z,1.93
2019-05-19T13:08:24.080Z,1.63
2019-05-19T13:10:53.167Z,2.17
2019-05-19T13:13:23.695Z,2.30
2019-05-19T13:16:00.700Z,1.90
2019-05-19T13:18:33.465Z,2.07
2019-05-19T13:21:01.959Z,1.90
2019-05-19T13:23:35.673Z,1.95
2019-05-19T13:26:00.365Z,2.40
2019-05-19T13:28:29.268Z,1.63
2019-05-19T13:30:58.034Z,3.23
2019-05-19T13:33:25.674Z,2.20
2019-05-19T13:35:57.966Z,2.37
2019-05-19T13:38:26.735Z,1.95
2019-05-19T13:40:55.024Z,2.40
2019-05-19T13:43:28.313Z,3.50
2019-05-19T13:45:55.961Z,4.80
2019-05-19T13:48:24.461Z,2.80
2019-05-19T13:50:55.533Z,1.80
2019-05-19T13:53:29.108Z,1.80
2019-05-19T13:55:54.109Z,2.50
2019-05-19T13:58:26.085Z,2.20
2019-05-19T14:00:58.196Z,7.40
2019-05-19T14:03:31.019Z,3.73
2019-05-19T14:05:59.317Z,2.13
2019-05-19T14:08:30.972Z,3.40
2019-05-19T14:10:59.106Z,1.93
2019-05-19T14:13:28.268Z,2.80
2019-05-19T14:15:56.710Z,2.60
2019-05-19T14:18:27.024Z,5.20
2019-05-19T14:20:57.964Z,1.70
2019-05-19T14:23:26.710Z,1.87
2019-05-19T14:25:56.438Z,1.87
2019-05-19T14:28:26.847Z,2.87
2019-05-19T14:30:58.037Z,5.00
2019-05-19T14:33:26.606Z,2.30
2019-05-19T14:35:57.513Z,1.80
2019-05-19T14:38:29.004Z,1.87
2019-05-19T14:40:59.947Z,1.77
2019-05-19T14:43:29.961Z,2.07
2019-05-19T14:45:59.754Z,5.53
2019-05-19T14:48:28.746Z,3.40
2019-05-19T14:50:59.911Z,3.93
2019-05-19T14:53:29.394Z,3.00
2019-05-19T14:56:00.429Z,1.90
2019-05-19T14:58:27.910Z,1.92
2019-05-19T15:00:55.649Z,3.27
2019-05-19T15:03:24.337Z,1.83
2019-05-19T15:05:55.142Z,2.17
2019-05-19T15:08:22.845Z,1.60
2019-05-19T15:10:51.161Z,2.50
2019-05-19T15:13:20.613Z,1.60
2019-05-19T15:15:49.444Z,2.10
2019-05-19T15:18:16.788Z,3.80
2019-05-19T15:20:45.305Z,1.93
2019-05-19T15:23:15.386Z,1.60
2019-05-19T15:25:44.372Z,4.10
2019-05-19T15:28:13.625Z,1.97
2019-05-19T15:30:40.991Z,3.47
2019-05-19T15:33:09.130Z,1.90
2019-05-19T15:35:37.995Z,2.00
2019-05-19T15:38:05.546Z,2.33
2019-05-19T15:40:33.298Z,2.00
2019-05-19T15:43:01.286Z,1.90
2019-05-19T15:45:30.079Z,2.00
2019-05-19T15:47:59.543Z,4.33
2019-05-19T15:50:27.466Z,2.23
2019-05-19T15:52:55.493Z,2.60
2019-05-19T15:55:25.722Z,2.50
2019-05-19T15:57:53.588Z,1.60
2019-05-19T16:00:22.513Z,3.25
2019-05-19T16:02:51.468Z,2.62
2019-05-19T16:05:27.671Z,2.63
2019-05-19T16:07:55.393Z,2.00
2019-05-19T16:10:28.096Z,2.47
2019-05-19T16:12:56.935Z,2.30
2019-05-19T16:15:25.794Z,2.30
2019-05-19T16:17:56.156Z,2.40
2019-05-19T16:20:28.364Z,2.20
2019-05-19T16:22:57.992Z,2.63
2019-05-19T16:25:30.122Z,1.73
2019-05-19T16:28:01.424Z,2.00
2019-05-19T16:30:30.173Z,1.90
2019-05-19T16:33:01.624Z,2.23
2019-05-19T16:35:28.923Z,2.08
2019-05-19T16:37:58.704Z,1.83
2019-05-19T16:40:28.886Z,2.53
2019-05-19T16:42:57.469Z,2.33
2019-05-19T16:45:31.854Z,2.27
2019-05-19T16:47:59.990Z,3.37
2019-05-19T16:50:31.757Z,2.60
2019-05-19T16:52:59.819Z,2.40
2019-05-19T16:55:31.756Z,2.50
2019-05-19T16:57:59.827Z,2.50
2019-05-19T17:00:28.491Z,2.30
2019-05-19T17:03:02.256Z,3.77
2019-05-19T17:05:31.863Z,2.90
2019-05-19T17:08:03.176Z,2.77
2019-05-19T17:10:33.996Z,2.50
2019-05-19T17:13:02.482Z,3.10
2019-05-19T17:15:32.177Z,4.80
2019-05-19T17:18:08.311Z,3.67
2019-05-19T17:20:36.223Z,2.60
2019-05-19T17:23:12.181Z,2.80
2019-05-19T17:25:39.988Z,4.40
2019-05-19T17:28:08.949Z,2.13
2019-05-19T17:30:37.659Z,2.70
2019-05-19T17:33:07.744Z,2.40
2019-05-19T17:35:36.401Z,2.57
2019-05-19T17:38:07.997Z,2.10
2019-05-19T17:40:37.714Z,2.50
2019-05-19T17:43:07.013Z,2.50
2019-05-19T17:45:36.561Z,1.90
2019-05-19T17:48:10.084Z,3.13
2019-05-19T17:50:38.682Z,2.40
2019-05-19T17:53:06.880Z,2.27
2019-05-19T17:55:39.460Z,2.40
2019-05-19T17:58:07.546Z,2.93
2019-05-19T18:00:38.763Z,2.70
2019-05-19T18:03:10.959Z,2.90
2019-05-19T18:05:39.839Z,3.33
2019-05-19T18:08:10.119Z,2.60
2019-05-19T18:10:37.932Z,2.40
2019-05-19T18:13:10.637Z,2.73
2019-05-19T18:15:40.073Z,2.23
2019-05-19T18:18:09.935Z,3.07
2019-05-19T18:20:38.579Z,2.50
2019-05-19T18:23:07.900Z,4.07
2019-05-19T18:25:40.789Z,2.50
2019-05-19T18:28:10.082Z,3.00
2019-05-19T18:30:39.281Z,2.40
2019-05-19T18:33:08.808Z,4.73
2019-05-19T18:35:39.690Z,2.70
2019-05-19T18:38:09.743Z,2.77
2019-05-19T18:40:39.247Z,2.75
2019-05-19T18:43:11.003Z,3.10
2019-05-19T18:45:40.166Z,4.17
2019-05-19T18:48:10.380Z,2.50
2019-05-19T18:50:39.167Z,3.80
2019-05-19T18:53:08.259Z,2.47
2019-05-19T18:55:37.567Z,4.10
2019-05-19T18:58:07.529Z,5.23
2019-05-19T19:00:40.473Z,5.70
2019-05-19T19:03:10.206Z,2.77
2019-05-19T19:05:40.698Z,2.98
2019-05-19T19:08:09.088Z,3.50
2019-05-19T19:10:39.205Z,2.80
2019-05-19T19:13:14.405Z,3.30
2019-05-19T19:15:42.885Z,2.70
2019-05-19T19:18:12.142Z,3.70
2019-05-19T19:20:41.510Z,2.63
2019-05-19T19:23:15.772Z,3.05
2019-05-19T19:25:45.081Z,2.57
2019-05-19T19:28:15.082Z,2.53
2019-05-19T19:30:47.060Z,6.80
2019-05-19T19:33:20.991Z,2.40
2019-05-19T19:35:49.449Z,2.57
2019-05-19T19:38:20.308Z,2.47
2019-05-19T19:40:50.379Z,2.10
2019-05-19T19:43:21.014Z,2.53
2019-05-19T19:45:55.911Z,2.70
2019-05-19T19:48:23.639Z,2.70
2019-05-19T19:50:52.297Z,4.13
2019-05-19T19:53:22.244Z,3.37
2019-05-19T19:55:50.695Z,2.80
2019-05-19T19:58:23.753Z,4.50
2019-05-19T20:00:54.658Z,4.53
2019-05-19T20:03:24.280Z,3.52
2019-05-19T20:05:55.474Z,3.60
2019-05-19T20:08:28.474Z,3.00
2019-05-19T20:10:58.455Z,3.30
2019-05-19T20:13:29.191Z,13.45
2019-05-19T20:15:58.526Z,3.30
2019-05-19T20:18:26.927Z,3.27
2019-05-19T20:20:56.718Z,3.30
2019-05-19T20:23:25.568Z,3.37
2019-05-19T20:25:55.647Z,5.60
2019-05-19T20:28:24.983Z,10.60
2019-05-19T20:30:54.389Z,3.57
2019-05-19T20:33:24.116Z,3.40
2019-05-19T20:35:53.209Z,3.97
2019-05-19T20:38:24.361Z,4.60
2019-05-19T20:41:00.972Z,3.73
2019-05-19T20:43:33.280Z,9.17
2019-05-19T20:46:01.855Z,4.00
2019-05-19T20:48:32.760Z,3.50
2019-05-19T20:50:58.991Z,4.40
2019-05-19T20:53:29.194Z,6.30
2019-05-19T20:55:58.037Z,4.33
2019-05-19T20:58:26.720Z,3.67
2019-05-19T21:00:55.659Z,3.60
2019-05-19T21:03:31.126Z,5.17
2019-05-19T21:06:04.451Z,4.00
2019-05-19T21:08:35.082Z,4.08
2019-05-19T21:11:04.227Z,3.90
2019-05-19T21:13:37.007Z,5.30
2019-05-19T21:16:05.067Z,4.07
2019-05-19T21:18:39.766Z,3.70
2019-05-19T21:21:11.505Z,11.03
2019-05-19T21:23:42.470Z,3.83
2019-05-19T21:26:18.626Z,4.50
2019-05-19T21:28:46.163Z,4.27
2019-05-19T21:31:15.421Z,3.80
2019-05-19T21:33:48.686Z,3.40
2019-05-19T21:36:20.939Z,3.67
2019-05-19T21:38:50.078Z,4.03
2019-05-19T21:41:23.905Z,5.93
2019-05-19T21:43:58.734Z,3.30
2019-05-19T21:46:30.559Z,3.70
2019-05-19T21:49:02.027Z,4.10
2019-05-19T21:51:32.963Z,4.58
2019-05-19T21:54:02.576Z,6.27
2019-05-19T21:56:32.567Z,4.77
2019-05-19T21:59:02.140Z,4.30
2019-05-19T22:01:36.976Z,3.93
2019-05-19T22:04:06.569Z,3.60
2019-05-19T22:06:40.028Z,4.33
2019-05-19T22:09:14.705Z,4.47
2019-05-19T22:11:43.756Z,6.53
2019-05-19T22:14:13.866Z,4.30
2019-05-19T22:16:42.348Z,6.20
2019-05-19T22:19:11.033Z,3.70
2019-05-19T22:21:41.235Z,4.00
2019-05-19T22:24:10.130Z,3.53
2019-05-19T22:26:39.748Z,3.47
2019-05-19T22:29:09.986Z,4.13
2019-05-19T22:31:38.454Z,3.80
2019-05-19T22:34:07.943Z,4.60
2019-05-19T22:36:38.922Z,4.60
2019-05-19T22:39:08.003Z,4.03
2019-05-19T22:41:41.844Z,3.40
2019-05-19T22:44:14.154Z,4.62
2019-05-19T22:46:47.140Z,3.73
2019-05-19T22:49:17.903Z,4.17
2019-05-19T22:51:47.204Z,4.00
2019-05-19T22:54:22.831Z,3.10
2019-05-19T22:56:52.169Z,3.00
2019-05-19T22:59:24.296Z,3.52
2019-05-19T23:01:54.019Z,8.17
2019-05-19T23:04:24.900Z,3.90
2019-05-19T23:06:54.650Z,4.03
2019-05-19T23:09:24.365Z,4.43
2019-05-19T23:11:55.237Z,4.93
2019-05-19T23:14:30.880Z,4.40
2019-05-19T23:17:04.551Z,4.60
2019-05-19T23:19:37.121Z,6.60
2019-05-19T23:22:09.765Z,7.20
2019-05-19T23:24:47.603Z,6.20
2019-05-19T23:27:16.946Z,6.00
2019-05-19T23:29:46.175Z,5.30
2019-05-19T23:32:15.339Z,6.20
2019-05-19T23:34:43.333Z,6.00
2019-05-19T23:37:15.232Z,5.70
2019-05-19T23:39:45.984Z,5.33
2019-05-19T23:42:14.135Z,5.83
2019-05-19T23:44:45.080Z,6.07
2019-05-19T23:47:14.596Z,6.10
2019-05-19T23:49:45.038Z,5.90
2019-05-19T23:52:15.457Z,5.53
2019-05-19T23:54:47.601Z,8.13
2019-05-19T23:57:19.587Z,6.00
2019-05-19T23:59:48.781Z,5.57
